createdAt,value
2018-11-22T12:20:36.094Z,8.10
2018-11-22T12:23:05.438Z,8.11
2018-11-22T12:25:34.623Z,8.15
2018-11-22T12:28:04.340Z,8.18
2018-11-22T12:30:34.430Z,8.21
2018-11-22T12:33:07.504Z,8.24
2018-11-22T12:35:46.808Z,8.27
2018-11-22T12:38:21.012Z,8.29
2018-11-22T12:40:50.166Z,8.32
2018-11-22T12:48:55.641Z,8.43
2018-11-22T12:51:30.142Z,8.48
2018-11-22T12:53:59.956Z,8.50
2018-11-22T12:56:29.076Z,8.49
2018-11-22T12:58:58.315Z,8.49
2018-11-22T13:01:27.692Z,8.50
2018-11-22T13:03:57.774Z,8.47
2018-11-22T13:06:26.850Z,8.47
2018-11-22T13:08:56.308Z,8.44
2018-11-22T13:11:25.498Z,8.40
2018-11-22T13:13:54.554Z,8.35
2018-11-22T13:16:23.842Z,8.34
2018-11-22T13:18:53.316Z,8.33
2018-11-22T13:21:22.481Z,8.34
2018-11-22T13:23:51.572Z,8.36
2018-11-22T13:26:20.913Z,8.37
2018-11-22T13:28:49.959Z,8.38
2018-11-22T13:31:19.257Z,8.37
2018-11-22T13:33:48.497Z,8.37
2018-11-22T13:36:18.327Z,8.36
2018-11-22T13:38:48.072Z,8.33
2018-11-22T13:41:18.424Z,8.31
2018-11-22T13:43:47.757Z,8.31
2018-11-22T13:46:18.335Z,8.33
2018-11-22T13:48:47.511Z,8.34
2018-11-22T13:51:17.099Z,8.35
2018-11-22T13:53:46.352Z,8.37
2018-11-22T13:56:15.481Z,8.40
2018-11-22T13:58:44.787Z,8.42
2018-11-22T14:01:13.903Z,8.42
2018-11-22T14:03:43.183Z,8.42
2018-11-22T14:06:12.706Z,8.39
2018-11-22T14:08:41.998Z,8.39
2018-11-22T14:11:14.052Z,8.37
2018-11-22T14:13:40.559Z,8.36
2018-11-22T14:16:10.317Z,8.36
2018-11-22T14:18:50.567Z,8.37
2018-11-22T14:21:19.805Z,8.34
2018-11-22T14:23:49.128Z,8.33
2018-11-22T14:26:18.308Z,8.32
2018-11-22T14:28:47.484Z,8.30
2018-11-22T14:31:16.938Z,8.31
2018-11-22T14:33:48.719Z,8.30
2018-11-22T14:36:17.744Z,8.26
2018-11-22T14:38:46.978Z,8.24
2018-11-22T14:41:16.243Z,8.21
2018-11-22T14:43:46.128Z,8.15
2018-11-22T14:46:15.244Z,8.11
2018-11-22T14:48:44.427Z,8.04
2018-11-22T14:51:18.660Z,8.00
2018-11-22T14:53:48.451Z,7.94
2018-11-22T14:56:17.650Z,7.88
2018-11-22T14:58:46.797Z,7.84
2018-11-22T15:01:16.223Z,7.79
2018-11-22T15:03:45.522Z,7.76
2018-11-22T15:06:14.778Z,7.73
2018-11-22T15:08:43.909Z,7.68
2018-11-22T15:11:13.258Z,7.65
2018-11-22T15:13:42.887Z,7.63
2018-11-22T15:16:12.314Z,7.59
2018-11-22T15:18:41.539Z,7.57
2018-11-22T15:21:10.835Z,7.56
2018-11-22T15:23:40.210Z,7.54
2018-11-22T15:26:09.367Z,7.51
2018-11-22T15:28:38.787Z,7.49
2018-11-22T15:31:08.079Z,7.46
2018-11-22T15:33:37.448Z,7.45
2018-11-22T15:36:06.703Z,7.46
2018-11-22T15:38:35.929Z,7.45
2018-11-22T15:41:05.140Z,7.45
2018-11-22T15:43:34.563Z,7.43
2018-11-22T15:46:04.766Z,7.43
2018-11-22T15:48:34.040Z,7.43
2018-11-22T15:51:03.332Z,7.43
2018-11-22T15:53:32.407Z,7.45
2018-11-22T15:56:03.067Z,7.47
2018-11-22T15:58:32.466Z,7.46
2018-11-22T16:01:01.879Z,7.46
2018-11-22T16:03:32.024Z,7.48
2018-11-22T16:06:01.312Z,7.50
2018-11-22T16:08:30.462Z,7.52
2018-11-22T16:10:59.723Z,7.53
2018-11-22T16:13:28.772Z,7.55
2018-11-22T16:15:58.797Z,7.57
2018-11-22T16:18:27.967Z,7.58
2018-11-22T16:20:57.983Z,7.61
2018-11-22T16:23:27.215Z,7.65
2018-11-22T16:25:58.935Z,7.65
2018-11-22T16:28:30.594Z,7.66
2018-11-22T16:30:59.818Z,7.66
2018-11-22T16:33:30.142Z,7.66
2018-11-22T16:35:59.969Z,7.65
2018-11-22T16:38:29.890Z,7.66
2018-11-22T16:41:00.243Z,7.67
2018-11-22T16:43:29.458Z,7.68
2018-11-22T16:45:58.463Z,7.67
2018-11-22T16:48:27.540Z,7.66
2018-11-22T16:50:56.642Z,7.65
2018-11-22T16:53:25.835Z,7.64
2018-11-22T16:55:59.344Z,7.61
2018-11-22T16:58:28.534Z,7.60
2018-11-22T17:00:58.890Z,7.59
2018-11-22T17:03:28.210Z,7.56
2018-11-22T17:05:57.529Z,7.55
2018-11-22T17:08:26.774Z,7.55
2018-11-22T17:10:56.384Z,7.54
2018-11-22T17:13:25.963Z,7.55
2018-11-22T17:15:55.435Z,7.54
2018-11-22T17:18:24.584Z,7.55
2018-11-22T17:20:53.890Z,7.57
2018-11-22T17:23:23.295Z,7.59
2018-11-22T17:25:52.588Z,7.58
2018-11-22T17:28:21.796Z,7.57
2018-11-22T17:30:50.831Z,7.56
2018-11-22T17:33:19.877Z,7.57
2018-11-22T17:35:48.889Z,7.56
2018-11-22T17:38:18.079Z,7.56
2018-11-22T17:40:51.010Z,7.58
2018-11-22T17:43:20.168Z,7.57
2018-11-22T17:45:50.697Z,7.58
2018-11-22T17:48:20.402Z,7.58
2018-11-22T17:50:49.977Z,7.58
2018-11-22T17:53:19.291Z,7.58
2018-11-22T17:55:48.758Z,7.57
2018-11-22T17:58:18.094Z,7.54
2018-11-22T18:00:50.516Z,7.53
2018-11-22T18:03:19.990Z,7.50
2018-11-22T18:05:49.902Z,7.47
2018-11-22T18:08:18.963Z,7.43
2018-11-22T18:10:48.089Z,7.39
2018-11-22T18:13:17.454Z,7.35
2018-11-22T18:15:51.572Z,7.31
2018-11-22T18:18:20.751Z,7.29
2018-11-22T18:20:49.923Z,7.25
2018-11-22T18:23:19.046Z,7.23
2018-11-22T18:25:49.070Z,7.22
2018-11-22T18:28:17.214Z,7.19
2018-11-22T18:30:46.299Z,7.17
2018-11-22T18:33:15.462Z,7.15
2018-11-22T18:35:44.875Z,7.12
2018-11-22T18:38:13.940Z,7.10
2018-11-22T18:40:43.933Z,7.06
2018-11-22T18:43:12.956Z,7.03
2018-11-22T18:45:43.447Z,7.01
2018-11-22T18:48:13.960Z,6.99
2018-11-22T18:50:43.383Z,6.97
2018-11-22T18:53:12.638Z,6.94
2018-11-22T18:55:41.885Z,6.92
2018-11-22T18:58:10.958Z,6.90
2018-11-22T19:00:42.486Z,6.90
2018-11-22T19:03:13.355Z,6.89
2018-11-22T19:05:42.545Z,6.88
2018-11-22T19:08:11.600Z,6.87
2018-11-22T19:10:41.780Z,6.88
2018-11-22T19:13:12.158Z,6.85
2018-11-22T19:15:42.679Z,6.84
2018-11-22T19:18:12.535Z,6.80
2018-11-22T19:20:43.894Z,6.77
2018-11-22T19:23:13.512Z,6.73
2018-11-22T19:25:48.132Z,6.72
2018-11-22T19:28:18.455Z,6.71
2018-11-22T19:30:48.540Z,6.70
2018-11-22T19:33:19.027Z,6.68
2018-11-22T19:35:50.282Z,6.66
2018-11-22T19:38:19.395Z,6.66
2018-11-22T19:40:48.580Z,6.66
2018-11-22T19:43:17.757Z,6.65
2018-11-22T19:45:48.273Z,6.64
2018-11-22T19:48:17.336Z,6.64
2018-11-22T19:50:46.386Z,6.65
2018-11-22T19:53:17.774Z,6.65
2018-11-22T19:55:46.810Z,6.66
2018-11-22T19:58:17.049Z,6.67
2018-11-22T20:00:46.077Z,6.70
2018-11-22T20:03:15.201Z,6.71
2018-11-22T20:05:44.825Z,6.71
2018-11-22T20:08:16.503Z,6.71
2018-11-22T20:10:46.204Z,6.71
2018-11-22T20:13:15.271Z,6.71
2018-11-22T20:15:44.476Z,6.72
2018-11-22T20:18:14.230Z,6.72
2018-11-22T20:20:49.531Z,6.72
2018-11-22T20:23:12.660Z,6.70
2018-11-22T20:25:41.880Z,6.69
2018-11-22T20:28:12.217Z,6.71
2018-11-22T20:30:44.022Z,6.70
2018-11-22T20:33:13.123Z,6.70
2018-11-22T20:35:42.187Z,6.70
2018-11-22T20:38:11.286Z,6.70
2018-11-22T20:40:40.984Z,6.70
2018-11-22T20:43:10.127Z,6.71
2018-11-22T20:45:40.978Z,6.71
2018-11-22T20:48:08.891Z,6.71
2018-11-22T20:50:38.399Z,6.72
2018-11-22T20:53:07.746Z,6.72
2018-11-22T20:55:38.130Z,6.72
2018-11-22T20:58:07.736Z,6.72
2018-11-22T21:00:38.710Z,6.75
2018-11-22T21:03:08.049Z,6.76
2018-11-22T21:05:37.338Z,6.78
2018-11-22T21:08:06.452Z,6.79
2018-11-22T21:10:35.791Z,6.78
2018-11-22T21:13:04.958Z,6.78
2018-11-22T21:15:34.598Z,6.79
2018-11-22T21:18:05.282Z,6.78
2018-11-22T21:20:36.096Z,6.79
2018-11-22T21:23:05.207Z,6.81
2018-11-22T21:25:34.253Z,6.82
2018-11-22T21:28:03.326Z,6.83
2018-11-22T21:30:33.660Z,6.85
2018-11-22T21:33:03.347Z,6.88
2018-11-22T21:35:33.041Z,6.89
2018-11-22T21:38:02.860Z,6.91
2018-11-22T21:40:32.583Z,6.93
2018-11-22T21:43:01.622Z,6.93
2018-11-22T21:45:31.373Z,6.94
2018-11-22T21:48:00.403Z,6.96
2018-11-22T21:50:29.848Z,6.96
2018-11-22T21:52:58.897Z,6.96
2018-11-22T21:55:29.194Z,6.99
2018-11-22T21:57:59.418Z,6.99
2018-11-22T22:00:34.450Z,7.02
2018-11-22T22:03:05.013Z,7.03
2018-11-22T22:05:34.174Z,7.02
2018-11-22T22:08:03.320Z,7.00
2018-11-22T22:10:32.554Z,6.97
2018-11-22T22:13:01.965Z,6.95
2018-11-22T22:15:32.377Z,6.94
2018-11-22T22:18:01.421Z,6.93
2018-11-22T22:20:33.718Z,6.94
2018-11-22T22:23:02.865Z,6.95
2018-11-22T22:25:32.223Z,6.97
2018-11-22T22:28:01.693Z,7.00
2018-11-22T22:30:32.297Z,7.03
2018-11-22T22:33:03.220Z,7.05
2018-11-22T22:35:32.290Z,7.08
2018-11-22T22:38:01.365Z,7.10
2018-11-22T22:40:31.402Z,7.12
2018-11-22T22:43:00.705Z,7.13
2018-11-22T22:45:31.344Z,7.14
2018-11-22T22:48:00.443Z,7.16
2018-11-22T22:50:31.056Z,7.17
2018-11-22T22:53:01.054Z,7.18
2018-11-22T22:55:30.513Z,7.19
2018-11-22T22:57:59.513Z,7.18
2018-11-22T23:00:34.045Z,7.21
2018-11-22T23:03:04.575Z,7.22
2018-11-22T23:05:33.941Z,7.23
2018-11-22T23:08:03.365Z,7.23
2018-11-22T23:10:32.518Z,7.23
2018-11-22T23:13:02.102Z,7.24
2018-11-22T23:15:31.971Z,7.25
2018-11-22T23:18:14.635Z,7.26
2018-11-22T23:21:01.726Z,7.26
2018-11-22T23:23:48.175Z,7.27
2018-11-22T23:26:18.044Z,7.28
2018-11-22T23:28:48.897Z,7.27
2018-11-22T23:31:36.430Z,7.28
2018-11-22T23:34:22.620Z,7.28
2018-11-22T23:37:08.143Z,7.29
2018-11-22T23:39:55.948Z,7.30
2018-11-22T23:42:44.390Z,7.29
2018-11-22T23:45:32.971Z,7.30
2018-11-22T23:48:22.409Z,7.29
2018-11-22T23:51:10.410Z,7.27
2018-11-22T23:53:58.241Z,7.26
2018-11-22T23:56:45.200Z,7.23
2018-11-22T23:59:33.760Z,7.20
